createdAt,value
2019-03-17T00:02:01.171Z,2.50
2019-03-17T00:04:31.594Z,1.70
2019-03-17T00:06:59.143Z,4.07
2019-03-17T00:09:27.248Z,3.43
2019-03-17T00:11:55.364Z,2.70
2019-03-17T00:14:23.477Z,2.70
2019-03-17T00:16:51.604Z,2.63
2019-03-17T00:19:19.726Z,3.33
2019-03-17T00:21:47.854Z,2.00
2019-03-17T00:24:15.966Z,2.93
2019-03-17T00:26:44.153Z,5.20
2019-03-17T00:29:12.251Z,2.83
2019-03-17T00:31:40.373Z,2.10
2019-03-17T00:34:08.477Z,2.17
2019-03-17T00:36:36.604Z,2.17
2019-03-17T00:39:05.749Z,3.30
2019-03-17T00:41:33.890Z,3.70
2019-03-17T00:44:02.018Z,3.47
2019-03-17T00:46:30.156Z,2.30
2019-03-17T00:48:58.288Z,3.53
2019-03-17T00:51:26.403Z,2.63
2019-03-17T00:53:54.520Z,2.47
2019-03-17T00:56:22.623Z,2.50
2019-03-17T00:58:50.759Z,2.57
2019-03-17T01:01:18.856Z,5.50
2019-03-17T01:03:46.984Z,4.27
2019-03-17T01:06:15.091Z,2.27
2019-03-17T01:08:43.227Z,4.20
2019-03-17T01:11:11.335Z,3.53
2019-03-17T01:13:39.447Z,3.70
2019-03-17T01:16:07.648Z,4.20
2019-03-17T01:18:35.747Z,3.33
2019-03-17T01:21:03.954Z,2.17
2019-03-17T01:23:32.061Z,3.27
2019-03-17T01:26:00.193Z,4.90
2019-03-17T01:28:28.301Z,5.80
2019-03-17T01:30:56.432Z,3.70
2019-03-17T01:33:24.536Z,3.77
2019-03-17T01:35:52.659Z,2.80
2019-03-17T01:38:20.768Z,5.07
2019-03-17T01:40:49.004Z,2.93
2019-03-17T01:43:17.399Z,5.00
2019-03-17T01:45:45.573Z,2.30
2019-03-17T01:48:13.972Z,3.57
2019-03-17T01:50:42.078Z,4.03
2019-03-17T01:53:10.195Z,5.20
2019-03-17T01:55:38.340Z,4.10
2019-03-17T01:58:06.499Z,3.50
2019-03-17T02:00:35.276Z,2.63
2019-03-17T02:03:03.408Z,3.67
2019-03-17T02:05:31.593Z,6.77
2019-03-17T02:07:59.795Z,4.23
2019-03-17T02:10:27.904Z,6.17
2019-03-17T02:12:56.035Z,4.50
2019-03-17T02:15:24.127Z,3.63
2019-03-17T02:17:52.238Z,4.17
2019-03-17T02:20:20.630Z,4.50
2019-03-17T02:22:48.738Z,3.83
2019-03-17T02:25:16.869Z,5.97
2019-03-17T02:27:44.989Z,3.77
2019-03-17T02:30:13.184Z,4.03
2019-03-17T02:32:41.297Z,4.83
2019-03-17T02:35:09.593Z,3.47
2019-03-17T02:37:37.706Z,6.50
2019-03-17T02:40:06.196Z,4.23
2019-03-17T02:42:34.310Z,5.47
2019-03-17T02:45:02.458Z,4.80
2019-03-17T02:47:30.571Z,5.70
2019-03-17T02:49:58.685Z,5.07
2019-03-17T02:52:26.817Z,4.47
2019-03-17T02:54:54.919Z,4.80
2019-03-17T02:57:23.050Z,4.27
2019-03-17T02:59:51.152Z,5.43
2019-03-17T03:02:19.276Z,7.43
2019-03-17T03:04:47.391Z,8.07
2019-03-17T03:07:15.513Z,4.43
2019-03-17T03:09:43.621Z,4.03
2019-03-17T03:12:11.753Z,4.60
2019-03-17T03:14:39.851Z,6.20
2019-03-17T03:17:07.976Z,5.00
2019-03-17T03:19:36.085Z,6.53
2019-03-17T03:22:04.281Z,7.47
2019-03-17T03:24:32.383Z,3.30
2019-03-17T03:27:00.488Z,4.13
2019-03-17T03:29:28.619Z,8.77
2019-03-17T03:31:56.823Z,5.83
2019-03-17T03:34:25.036Z,6.23
2019-03-17T03:36:53.225Z,5.97
2019-03-17T03:39:21.478Z,7.07
2019-03-17T03:41:49.584Z,6.33
2019-03-17T03:44:17.713Z,6.33
2019-03-17T03:46:45.826Z,8.10
2019-03-17T03:49:14.033Z,7.27
2019-03-17T03:51:42.140Z,5.17
2019-03-17T03:54:10.268Z,6.73
2019-03-17T03:56:38.387Z,5.40
2019-03-17T03:59:06.485Z,6.40
2019-03-17T04:01:34.619Z,8.40
2019-03-17T04:04:02.717Z,9.23
2019-03-17T04:06:30.846Z,6.33
2019-03-17T04:08:58.952Z,6.80
2019-03-17T04:11:27.077Z,4.73
2019-03-17T04:13:55.187Z,9.40
2019-03-17T04:16:23.308Z,6.93
2019-03-17T04:18:51.413Z,5.37
2019-03-17T04:21:19.537Z,8.23
2019-03-17T04:23:47.654Z,9.27
2019-03-17T04:26:15.853Z,4.50
2019-03-17T04:28:49.314Z,7.20
2019-03-17T04:31:17.419Z,7.37
2019-03-17T04:33:45.624Z,5.50
2019-03-17T04:36:13.729Z,8.83
2019-03-17T04:38:43.864Z,7.33
2019-03-17T04:41:11.751Z,7.93
2019-03-17T04:43:39.880Z,7.83
2019-03-17T04:46:07.984Z,5.73
2019-03-17T04:48:36.485Z,5.57
2019-03-17T04:51:04.637Z,11.17
2019-03-17T04:53:32.765Z,4.93
2019-03-17T04:56:00.877Z,6.23
2019-03-17T04:58:29.002Z,8.20
2019-03-17T05:00:57.104Z,5.87
2019-03-17T05:03:25.228Z,6.77
2019-03-17T05:05:53.339Z,6.90
2019-03-17T05:08:21.441Z,5.80
2019-03-17T05:10:49.576Z,6.97
2019-03-17T05:13:17.688Z,8.33
2019-03-17T05:15:45.812Z,10.43
2019-03-17T05:18:13.921Z,7.90
2019-03-17T05:20:42.056Z,7.23
2019-03-17T05:23:11.070Z,6.67
2019-03-17T05:25:39.191Z,4.87
2019-03-17T05:28:07.301Z,9.20
2019-03-17T05:30:35.423Z,5.33
2019-03-17T05:33:03.556Z,7.00
2019-03-17T05:35:31.700Z,3.97
2019-03-17T05:37:59.811Z,9.43
2019-03-17T05:40:27.938Z,3.67
2019-03-17T05:42:56.615Z,5.47
2019-03-17T05:45:24.736Z,9.43
2019-03-17T05:47:52.862Z,9.23
2019-03-17T05:50:20.970Z,6.47
2019-03-17T05:52:49.102Z,5.73
2019-03-17T05:55:17.222Z,5.03
2019-03-17T05:57:45.362Z,11.60
2019-03-17T06:00:15.336Z,4.53
2019-03-17T06:02:43.477Z,8.47
2019-03-17T06:05:11.730Z,10.53
2019-03-17T06:07:39.866Z,4.37
2019-03-17T06:10:08.119Z,7.97
2019-03-17T06:12:36.249Z,6.23
2019-03-17T06:15:05.896Z,4.90
2019-03-17T06:17:34.038Z,4.40
2019-03-17T06:20:02.306Z,5.07
2019-03-17T06:22:30.428Z,10.03
2019-03-17T06:24:58.634Z,4.40
2019-03-17T06:27:26.752Z,5.60
2019-03-17T06:29:54.883Z,7.57
2019-03-17T06:32:22.981Z,5.07
2019-03-17T06:34:51.120Z,6.30
2019-03-17T06:37:30.649Z,4.70
2019-03-17T06:39:49.083Z,3.60
2019-03-17T06:42:17.278Z,9.30
2019-03-17T06:44:45.409Z,4.13
2019-03-17T06:47:13.542Z,5.20
2019-03-17T06:49:41.659Z,3.50
2019-03-17T06:52:09.769Z,5.13
2019-03-17T06:54:37.902Z,7.27
2019-03-17T06:57:06.153Z,3.60
2019-03-17T06:59:34.277Z,6.70
2019-03-17T07:02:02.388Z,6.17
2019-03-17T07:04:30.522Z,3.90
2019-03-17T07:06:58.628Z,7.73
2019-03-17T07:09:26.742Z,3.73
2019-03-17T07:11:54.946Z,3.43
2019-03-17T07:14:23.053Z,3.00
2019-03-17T07:16:51.185Z,1.77
2019-03-17T07:19:19.297Z,2.57
2019-03-17T07:21:47.421Z,3.53
2019-03-17T07:24:15.535Z,2.77
2019-03-17T07:26:43.656Z,1.00
2019-03-17T07:29:11.765Z,1.17
2019-03-17T07:31:39.893Z,1.57
2019-03-17T07:34:08.002Z,0.83
2019-03-17T07:36:36.132Z,0.60
2019-03-17T07:39:11.690Z,0.80
2019-03-17T07:41:35.751Z,0.60
2019-03-17T07:44:03.936Z,0.57
2019-03-17T07:46:32.048Z,1.23
2019-03-17T07:49:00.244Z,0.87
2019-03-17T07:51:28.357Z,0.50
2019-03-17T07:53:56.489Z,0.40
2019-03-17T07:56:24.611Z,0.80
2019-03-17T07:58:52.737Z,1.30
2019-03-17T08:01:20.849Z,2.30
2019-03-17T08:03:49.301Z,1.13
2019-03-17T08:06:17.422Z,1.30
2019-03-17T08:08:45.564Z,1.70
2019-03-17T08:11:14.029Z,1.57
2019-03-17T08:13:42.136Z,1.03
2019-03-17T08:16:10.275Z,0.97
2019-03-17T08:18:38.457Z,0.60
2019-03-17T08:21:06.595Z,1.07
2019-03-17T08:23:34.712Z,3.40
2019-03-17T08:26:02.844Z,2.07
2019-03-17T08:28:30.948Z,1.73
2019-03-17T08:30:59.069Z,0.60
2019-03-17T08:33:27.184Z,0.80
2019-03-17T08:35:55.312Z,1.53
2019-03-17T08:38:23.434Z,2.47
2019-03-17T08:40:51.648Z,1.60
2019-03-17T08:43:19.756Z,0.77
2019-03-17T08:45:47.908Z,1.30
2019-03-17T08:48:16.017Z,2.47
2019-03-17T08:50:44.128Z,1.70
2019-03-17T08:53:12.244Z,2.30
2019-03-17T08:55:40.364Z,2.77
2019-03-17T08:58:08.501Z,1.23
2019-03-17T09:00:36.684Z,14.03
2019-03-17T09:03:04.888Z,2.73
2019-03-17T09:05:32.983Z,2.37
2019-03-17T09:08:01.177Z,4.20
2019-03-17T09:10:29.282Z,3.27
2019-03-17T09:12:57.404Z,2.33
2019-03-17T09:15:25.508Z,3.23
2019-03-17T09:17:53.630Z,2.13
2019-03-17T09:20:21.732Z,1.33
2019-03-17T09:22:49.869Z,2.47
2019-03-17T09:25:18.088Z,4.33
2019-03-17T09:27:46.255Z,3.10
2019-03-17T09:30:15.053Z,1.63
2019-03-17T09:32:43.228Z,4.90
2019-03-17T09:35:11.348Z,4.77
2019-03-17T09:37:39.521Z,1.80
2019-03-17T09:40:14.112Z,1.93
2019-03-17T09:42:42.284Z,5.07
2019-03-17T09:45:11.376Z,2.33
2019-03-17T09:47:41.234Z,4.57
2019-03-17T09:50:10.895Z,4.13
2019-03-17T09:52:39.066Z,1.80
2019-03-17T09:55:08.086Z,1.80
2019-03-17T09:57:36.180Z,3.10
2019-03-17T10:00:08.593Z,1.90
2019-03-17T10:02:36.997Z,0.67
2019-03-17T10:05:05.658Z,2.87
2019-03-17T10:07:33.808Z,2.63
2019-03-17T10:10:02.110Z,2.97
2019-03-17T10:12:30.385Z,2.67
2019-03-17T10:14:58.563Z,3.30
2019-03-17T10:17:26.695Z,3.17
2019-03-17T10:19:54.791Z,2.20
2019-03-17T10:22:22.954Z,5.47
2019-03-17T10:24:52.664Z,3.00
2019-03-17T10:27:20.832Z,4.37
2019-03-17T10:29:48.952Z,3.87
2019-03-17T10:32:17.103Z,3.07
2019-03-17T10:34:45.236Z,2.83
2019-03-17T10:37:13.355Z,2.60
2019-03-17T10:39:41.464Z,2.33
2019-03-17T10:42:09.567Z,4.90
2019-03-17T10:44:37.729Z,2.20
2019-03-17T10:47:05.828Z,3.30
2019-03-17T10:49:34.065Z,5.87
2019-03-17T10:52:02.176Z,2.10
2019-03-17T10:54:30.308Z,2.13
2019-03-17T10:56:58.468Z,1.37
2019-03-17T10:59:27.865Z,2.93
2019-03-17T11:01:56.256Z,2.80
2019-03-17T11:04:24.449Z,4.50
2019-03-17T11:06:52.552Z,3.30
2019-03-17T11:09:25.503Z,3.73
2019-03-17T11:11:50.767Z,3.70
2019-03-17T11:14:19.052Z,1.57
2019-03-17T11:16:47.174Z,2.60
2019-03-17T11:19:15.364Z,3.83
2019-03-17T11:21:43.495Z,2.23
2019-03-17T11:24:11.727Z,5.80
2019-03-17T11:26:39.932Z,3.87
2019-03-17T11:29:08.111Z,6.30
2019-03-17T11:31:37.696Z,1.37
2019-03-17T11:34:06.001Z,2.63
2019-03-17T11:36:34.185Z,2.70
2019-03-17T11:39:02.297Z,1.80
2019-03-17T11:41:30.425Z,1.47
2019-03-17T11:43:58.576Z,2.57
2019-03-17T11:46:26.713Z,1.00
2019-03-17T11:48:54.921Z,1.63
2019-03-17T11:51:23.184Z,2.80
2019-03-17T11:53:51.290Z,0.73
2019-03-17T11:56:19.433Z,2.53
2019-03-17T11:58:47.545Z,3.20
2019-03-17T12:01:17.866Z,6.10
2019-03-17T12:03:45.588Z,2.93
2019-03-17T12:06:13.726Z,1.07
2019-03-17T12:08:41.819Z,1.33
2019-03-17T12:11:09.943Z,1.93
2019-03-17T12:13:38.056Z,3.70
2019-03-17T12:16:06.262Z,2.17
2019-03-17T12:18:34.357Z,2.23
2019-03-17T12:21:02.520Z,3.27
2019-03-17T12:23:30.720Z,1.33
2019-03-17T12:25:58.842Z,1.13
2019-03-17T12:28:29.664Z,0.97
2019-03-17T12:30:57.775Z,1.10
2019-03-17T12:33:25.913Z,2.87
2019-03-17T12:35:54.476Z,1.33
2019-03-17T12:38:22.666Z,0.63
2019-03-17T12:40:50.888Z,1.20
2019-03-17T12:43:19.023Z,1.03
2019-03-17T12:45:47.141Z,1.23
2019-03-17T12:48:15.259Z,0.97
2019-03-17T12:50:43.377Z,1.07
2019-03-17T12:53:11.500Z,2.07
2019-03-17T12:55:39.609Z,0.97
2019-03-17T12:58:07.743Z,3.23
2019-03-17T13:00:35.840Z,1.13
2019-03-17T13:03:04.225Z,1.97
2019-03-17T13:05:35.396Z,1.50
2019-03-17T13:08:03.574Z,2.10
2019-03-17T13:10:31.683Z,1.63
2019-03-17T13:12:59.788Z,2.57
2019-03-17T13:15:28.189Z,2.60
2019-03-17T13:17:57.936Z,0.93
2019-03-17T13:20:26.061Z,0.67
2019-03-17T13:22:54.164Z,0.70
2019-03-17T13:25:22.357Z,0.83
2019-03-17T13:27:50.486Z,2.90
2019-03-17T13:30:18.789Z,1.03
2019-03-17T13:32:46.955Z,1.30
2019-03-17T13:35:15.118Z,1.13
2019-03-17T13:37:43.223Z,1.43
2019-03-17T13:40:12.876Z,0.77
2019-03-17T13:42:41.085Z,3.13
2019-03-17T13:45:30.037Z,1.67
2019-03-17T13:47:58.137Z,1.53
2019-03-17T13:50:26.240Z,1.17
2019-03-17T13:52:54.369Z,1.13
2019-03-17T13:55:22.478Z,1.37
2019-03-17T13:57:52.538Z,2.43
2019-03-17T14:00:20.769Z,0.80
2019-03-17T14:02:49.547Z,2.27
2019-03-17T14:05:17.719Z,3.53
2019-03-17T14:07:45.855Z,1.73
2019-03-17T14:10:15.144Z,1.43
2019-03-17T14:12:43.332Z,2.37
2019-03-17T14:15:12.429Z,2.43
2019-03-17T14:17:40.610Z,1.63
2019-03-17T14:20:15.641Z,1.37
2019-03-17T14:22:43.833Z,1.50
2019-03-17T14:25:16.280Z,1.10
2019-03-17T14:27:44.400Z,1.30
2019-03-17T14:30:16.133Z,1.70
2019-03-17T14:32:44.319Z,1.77
2019-03-17T14:35:12.509Z,1.40
2019-03-17T14:37:40.606Z,1.07
2019-03-17T14:40:10.306Z,0.80
2019-03-17T14:42:38.408Z,2.17
2019-03-17T14:45:08.098Z,1.30
2019-03-17T14:47:36.283Z,1.47
2019-03-17T14:50:06.098Z,2.37
2019-03-17T14:52:34.205Z,1.53
2019-03-17T14:55:02.339Z,0.93
2019-03-17T14:57:30.488Z,1.37
2019-03-17T14:59:58.731Z,2.07
2019-03-17T15:02:26.882Z,1.30
2019-03-17T15:04:55.004Z,1.73
2019-03-17T15:07:23.133Z,2.30
2019-03-17T15:09:51.316Z,1.67
2019-03-17T15:12:19.429Z,1.20
2019-03-17T15:14:47.613Z,1.40
2019-03-17T15:17:15.788Z,1.07
2019-03-17T15:19:44.050Z,1.13
2019-03-17T15:22:12.252Z,1.37
2019-03-17T15:24:40.471Z,1.13
2019-03-17T15:27:11.255Z,1.80
2019-03-17T15:29:39.360Z,1.43
2019-03-17T15:32:07.495Z,2.23
2019-03-17T15:34:35.605Z,1.73
2019-03-17T15:37:05.062Z,0.93
2019-03-17T15:39:33.441Z,0.90
2019-03-17T15:42:01.579Z,1.10
2019-03-17T15:44:30.609Z,1.07
2019-03-17T15:46:58.808Z,2.00
2019-03-17T15:49:26.914Z,0.60
2019-03-17T15:51:55.106Z,1.27
2019-03-17T15:54:23.298Z,1.60
2019-03-17T15:56:51.533Z,2.27
2019-03-17T15:59:19.651Z,1.07
2019-03-17T16:01:47.808Z,1.30
2019-03-17T16:04:15.931Z,1.40
2019-03-17T16:06:44.109Z,2.03
2019-03-17T16:09:12.235Z,2.53
2019-03-17T16:11:40.376Z,0.70
2019-03-17T16:14:08.586Z,1.43
2019-03-17T16:16:36.698Z,0.90
2019-03-17T16:19:04.900Z,0.73
2019-03-17T16:21:33.016Z,1.10
2019-03-17T16:24:01.155Z,1.83
2019-03-17T16:26:29.268Z,0.93
2019-03-17T16:28:57.405Z,0.93
2019-03-17T16:31:25.505Z,1.50
2019-03-17T16:33:53.646Z,1.37
2019-03-17T16:36:21.745Z,2.00
2019-03-17T16:38:49.896Z,1.27
2019-03-17T16:41:17.988Z,0.40
2019-03-17T16:43:46.114Z,0.40
2019-03-17T16:46:33.573Z,0.60
2019-03-17T16:49:01.700Z,5.43
2019-03-17T16:51:29.813Z,1.37
2019-03-17T16:53:57.986Z,1.57
2019-03-17T16:56:26.092Z,1.33
2019-03-17T16:58:54.189Z,2.00
2019-03-17T17:01:22.332Z,0.93
2019-03-17T17:03:50.444Z,1.40
2019-03-17T17:06:18.571Z,1.47
2019-03-17T17:08:47.040Z,0.73
2019-03-17T17:11:15.283Z,2.90
2019-03-17T17:13:43.425Z,1.40
2019-03-17T17:16:11.612Z,1.13
2019-03-17T17:18:39.724Z,1.00
2019-03-17T17:21:07.852Z,1.03
2019-03-17T17:23:36.031Z,2.20
2019-03-17T17:26:04.233Z,0.77
2019-03-17T17:28:32.334Z,1.10
2019-03-17T17:31:00.470Z,1.17
2019-03-17T17:33:28.584Z,1.27
2019-03-17T17:35:56.692Z,1.43
2019-03-17T17:38:24.834Z,1.10
2019-03-17T17:40:53.015Z,1.20
2019-03-17T17:43:21.147Z,0.80
2019-03-17T17:45:49.256Z,1.50
2019-03-17T17:48:17.730Z,2.27
2019-03-17T17:50:45.857Z,5.13
2019-03-17T17:53:14.123Z,1.77
2019-03-17T17:55:42.232Z,1.53
2019-03-17T17:58:10.376Z,1.83
2019-03-17T18:00:40.205Z,3.57
2019-03-17T18:03:08.344Z,1.90
2019-03-17T18:05:36.459Z,1.60
2019-03-17T18:08:04.660Z,2.10
2019-03-17T18:10:32.772Z,2.10
2019-03-17T18:13:00.901Z,1.20
2019-03-17T18:15:29.599Z,1.70
2019-03-17T18:17:57.723Z,1.40
2019-03-17T18:20:25.827Z,1.60
2019-03-17T18:22:54.042Z,2.17
2019-03-17T18:25:22.152Z,2.93
2019-03-17T18:27:50.288Z,2.23
2019-03-17T18:30:19.069Z,2.93
2019-03-17T18:32:47.266Z,3.30
2019-03-17T18:35:15.426Z,1.70
2019-03-17T18:37:43.693Z,0.90
2019-03-17T18:40:13.156Z,1.43
2019-03-17T18:42:41.427Z,1.80
2019-03-17T18:45:11.081Z,1.40
2019-03-17T18:47:39.216Z,1.33
2019-03-17T18:50:19.983Z,3.37
2019-03-17T18:52:41.125Z,1.40
2019-03-17T18:55:10.221Z,1.20
2019-03-17T18:57:38.363Z,1.00
2019-03-17T19:00:08.349Z,1.90
2019-03-17T19:02:36.489Z,4.23
2019-03-17T19:05:05.692Z,4.27
2019-03-17T19:07:33.925Z,3.30
2019-03-17T19:10:02.314Z,2.50
2019-03-17T19:12:30.461Z,2.90
2019-03-17T19:14:58.581Z,1.80
2019-03-17T19:17:26.741Z,3.67
2019-03-17T19:19:54.884Z,2.60
2019-03-17T19:22:23.053Z,1.40
2019-03-17T19:24:51.199Z,3.77
2019-03-17T19:27:19.372Z,1.10
2019-03-17T19:29:47.517Z,1.30
2019-03-17T19:32:15.620Z,1.03
2019-03-17T19:34:43.763Z,1.63
2019-03-17T19:37:11.877Z,2.70
2019-03-17T19:39:40.011Z,1.63
2019-03-17T19:42:08.112Z,0.93
2019-03-17T19:44:36.266Z,1.30
2019-03-17T19:47:04.388Z,2.40
2019-03-17T19:49:32.540Z,3.83
2019-03-17T19:52:00.679Z,3.20
2019-03-17T19:54:29.681Z,3.33
2019-03-17T19:56:58.150Z,2.50
2019-03-17T19:59:26.650Z,2.10
2019-03-17T20:01:54.897Z,3.33
2019-03-17T20:04:30.950Z,4.53
2019-03-17T20:06:52.955Z,2.20
2019-03-17T20:09:21.165Z,4.67
2019-03-17T20:11:49.392Z,3.57
2019-03-17T20:14:17.777Z,3.77
2019-03-17T20:16:45.904Z,3.53
2019-03-17T20:19:14.024Z,3.33
2019-03-17T20:21:42.174Z,3.17
2019-03-17T20:24:10.294Z,1.90
2019-03-17T20:26:38.529Z,2.80
2019-03-17T20:29:06.642Z,3.43
2019-03-17T20:31:34.777Z,2.00
2019-03-17T20:34:03.204Z,1.97
2019-03-17T20:36:31.338Z,2.40
2019-03-17T20:38:59.445Z,4.83
2019-03-17T20:41:27.590Z,2.60
2019-03-17T20:43:55.708Z,4.77
2019-03-17T20:46:23.853Z,2.77
2019-03-17T20:48:51.972Z,1.77
2019-03-17T20:51:20.402Z,2.03
2019-03-17T20:53:48.533Z,2.50
2019-03-17T20:56:16.667Z,3.10
2019-03-17T20:58:45.121Z,5.57
2019-03-17T21:01:13.233Z,2.73
2019-03-17T21:03:41.673Z,1.13
2019-03-17T21:06:09.787Z,1.60
2019-03-17T21:08:38.197Z,1.93
2019-03-17T21:11:06.365Z,2.27
2019-03-17T21:13:46.294Z,2.63
2019-03-17T21:16:04.828Z,2.40
2019-03-17T21:18:32.978Z,2.07
2019-03-17T21:21:01.105Z,2.87
2019-03-17T21:23:29.236Z,3.87
2019-03-17T21:25:57.435Z,3.07
2019-03-17T21:28:27.690Z,2.70
2019-03-17T21:30:55.865Z,2.23
2019-03-17T21:33:24.074Z,3.13
2019-03-17T21:35:52.184Z,5.10
2019-03-17T21:38:20.318Z,3.27
2019-03-17T21:41:06.112Z,3.30
2019-03-17T21:43:18.370Z,3.63
2019-03-17T21:45:46.480Z,4.73
2019-03-17T21:48:14.930Z,4.97
2019-03-17T21:50:43.048Z,2.00
2019-03-17T21:53:11.177Z,2.27
2019-03-17T21:55:39.476Z,6.10
2019-03-17T21:58:08.468Z,2.80
2019-03-17T22:00:36.837Z,4.67
2019-03-17T22:03:04.958Z,5.23
2019-03-17T22:05:33.107Z,3.77
2019-03-17T22:08:01.233Z,4.23
2019-03-17T22:10:29.445Z,2.33
2019-03-17T22:12:57.643Z,4.93
2019-03-17T22:15:25.779Z,5.60
2019-03-17T22:17:53.881Z,4.27
2019-03-17T22:20:22.028Z,8.10
2019-03-17T22:22:50.140Z,3.03
2019-03-17T22:25:18.646Z,5.33
2019-03-17T22:27:47.144Z,3.03
2019-03-17T22:30:16.103Z,4.13
2019-03-17T22:32:44.221Z,6.37
2019-03-17T22:35:12.664Z,5.10
2019-03-17T22:37:40.846Z,4.20
2019-03-17T22:40:13.509Z,5.37
2019-03-17T22:42:41.638Z,7.20
2019-03-17T22:45:11.208Z,3.27
2019-03-17T22:47:39.365Z,7.63
2019-03-17T22:50:09.089Z,3.83
2019-03-17T22:52:37.228Z,6.43
2019-03-17T22:55:06.308Z,8.73
2019-03-17T22:57:34.440Z,5.47
2019-03-17T23:00:03.036Z,5.03
2019-03-17T23:02:31.320Z,5.03
2019-03-17T23:04:59.759Z,5.23
2019-03-17T23:07:27.915Z,7.13
2019-03-17T23:09:56.032Z,6.10
2019-03-17T23:12:24.159Z,6.67
2019-03-17T23:14:52.276Z,5.57
2019-03-17T23:17:20.407Z,6.57
2019-03-17T23:19:48.601Z,12.90
2019-03-17T23:22:16.735Z,5.37
2019-03-17T23:24:44.867Z,6.17
2019-03-17T23:27:13.068Z,9.47
2019-03-17T23:29:41.184Z,7.43
2019-03-17T23:32:09.852Z,9.37
2019-03-17T23:34:38.064Z,8.27
2019-03-17T23:37:06.262Z,6.97
2019-03-17T23:39:34.374Z,5.03
2019-03-17T23:42:04.525Z,11.73
2019-03-17T23:44:32.431Z,11.90
2019-03-17T23:47:00.588Z,7.33
2019-03-17T23:49:28.869Z,12.90
2019-03-17T23:51:57.174Z,5.37
2019-03-17T23:54:25.359Z,5.90
2019-03-17T23:56:53.538Z,6.33
2019-03-17T23:59:21.664Z,7.73
